sensor_id;sensor_type;location;lat;lon;timestamp;temperature;humidity
3578;DHT22;1803;48.494;9.696;2022-09-06T03:02:23;16.10;99.90
3578;DHT22;1803;48.494;9.696;2022-09-06T03:04:48;16.10;99.90
3578;DHT22;1803;48.494;9.696;2022-09-06T03:07:14;16.10;99.90
3578;DHT22;1803;48.494;9.696;2022-09-06T03:09:39;16.10;99.90
3578;DHT22;1803;48.494;9.696;2022-09-06T03:12:06;16.00;99.90
3578;DHT22;1803;48.494;9.696;2022-09-06T03:14:31;16.00;99.90
3578;DHT22;1803;48.494;9.696;2022-09-06T03:16:57;16.00;99.90
3578;DHT22;1803;48.494;9.696;2022-09-06T03:19:22;16.00;99.90
3578;DHT22;1803;48.494;9.696;2022-09-06T03:21:48;15.90;99.90
3578;DHT22;1803;48.494;9.696;2022-09-06T03:24:13;15.90;99.90
3578;DHT22;1803;48.494;9.696;2022-09-06T03:26:39;15.80;99.90
3578;DHT22;1803;48.494;9.696;2022-09-06T03:29:04;15.80;99.90
3578;DHT22;1803;48.494;9.696;2022-09-06T03:31:30;15.80;99.90
3578;DHT22;1803;48.494;9.696;2022-09-06T03:33:56;15.80;99.90
3578;DHT22;1803;48.494;9.696;2022-09-06T03:36:21;15.70;99.90
3578;DHT22;1803;48.494;9.696;2022-09-06T03:38:47;15.70;99.90
3578;DHT22;1803;48.494;9.696;2022-09-06T03:41:12;15.70;99.90
3578;DHT22;1803;48.494;9.696;2022-09-06T03:43:38;15.80;99.90
3578;DHT22;1803;48.494;9.696;2022-09-06T03:46:03;15.90;99.90
3578;DHT22;1803;48.494;9.696;2022-09-06T03:48:29;15.90;99.90
3578;DHT22;1803;48.494;9.696;2022-09-06T03:50:56;16.10;99.90
3578;DHT22;1803;48.494;9.696;2022-09-06T03:53:23;16.20;99.90
3578;DHT22;1803;48.494;9.696;2022-09-06T03:55:53;16.30;99.90
3578;DHT22;1803;48.494;9.696;2022-09-06T03:58:20;16.40;99.90
3578;DHT22;1803;48.494;9.696;2022-09-06T04:00:47;16.40;99.90
3578;DHT22;1803;48.494;9.696;2022-09-06T04:03:12;16.50;99.90
3578;DHT22;1803;48.494;9.696;2022-09-06T04:05:38;16.50;99.90
3578;DHT22;1803;48.494;9.696;2022-09-06T04:08:04;16.60;99.90
3578;DHT22;1803;48.494;9.696;2022-09-06T04:10:30;16.70;99.90
3578;DHT22;1803;48.494;9.696;2022-09-06T04:12:56;16.80;99.90
3578;DHT22;1803;48.494;9.696;2022-09-06T04:15:22;16.80;99.90
3578;DHT22;1803;48.494;9.696;2022-09-06T04:17:47;16.80;99.90
3578;DHT22;1803;48.494;9.696;2022-09-06T04:20:14;16.80;99.90
3578;DHT22;1803;48.494;9.696;2022-09-06T04:22:40;16.80;99.90
3578;DHT22;1803;48.494;9.696;2022-09-06T04:25:06;16.80;99.90
3578;DHT22;1803;48.494;9.696;2022-09-06T04:27:32;16.70;99.90
3578;DHT22;1803;48.494;9.696;2022-09-06T04:29:58;16.70;99.90
3578;DHT22;1803;48.494;9.696;2022-09-06T04:32:23;16.70;99.90
3578;DHT22;1803;48.494;9.696;2022-09-06T04:34:49;16.70;99.90
3578;DHT22;1803;48.494;9.696;2022-09-06T04:37:14;16.70;99.90
3578;DHT22;1803;48.494;9.696;2022-09-06T04:39:44;16.60;99.90
3578;DHT22;1803;48.494;9.696;2022-09-06T04:42:10;16.60;99.90
3578;DHT22;1803;48.494;9.696;2022-09-06T04:44:35;16.50;99.90
3578;DHT22;1803;48.494;9.696;2022-09-06T04:47:07;16.50;99.90
3578;DHT22;1803;48.494;9.696;2022-09-06T04:49:37;16.40;99.90
3578;DHT22;1803;48.494;9.696;2022-09-06T04:52:02;16.40;99.90
3578;DHT22;1803;48.494;9.696;2022-09-06T04:54:28;16.40;99.90
3578;DHT22;1803;48.494;9.696;2022-09-06T04:56:53;16.30;99.90
3578;DHT22;1803;48.494;9.696;2022-09-06T04:59:19;16.30;99.90
3578;DHT22;1803;48.494;9.696;2022-09-06T05:01:44;16.30;99.90
3578;DHT22;1803;48.494;9.696;2022-09-06T05:04:10;16.30;99.90
3578;DHT22;1803;48.494;9.696;2022-09-06T05:06:35;16.30;99.90
3578;DHT22;1803;48.494;9.696;2022-09-06T05:09:03;16.30;99.90
3578;DHT22;1803;48.494;9.696;2022-09-06T05:11:29;16.30;99.90
3578;DHT22;1803;48.494;9.696;2022-09-06T05:13:54;16.30;99.90
3578;DHT22;1803;48.494;9.696;2022-09-06T05:16:20;16.30;99.90
3578;DHT22;1803;48.494;9.696;2022-09-06T05:18:45;16.30;99.90
3578;DHT22;1803;48.494;9.696;2022-09-06T05:21:11;16.40;99.90
3578;DHT22;1803;48.494;9.696;2022-09-06T05:23:36;16.40;99.90
3578;DHT22;1803;48.494;9.696;2022-09-06T05:26:02;16.40;99.90
3578;DHT22;1803;48.494;9.696;2022-09-06T05:28:28;16.50;99.90
3578;DHT22;1803;48.494;9.696;2022-09-06T05:31:11;16.50;99.90
3578;DHT22;1803;48.494;9.696;2022-09-06T05:33:37;16.40;99.90
3578;DHT22;1803;48.494;9.696;2022-09-06T05:36:03;16.50;99.90
3578;DHT22;1803;48.494;9.696;2022-09-06T05:38:29;16.80;99.90
3578;DHT22;1803;48.494;9.696;2022-09-06T05:40:55;17.30;99.90
3578;DHT22;1803;48.494;9.696;2022-09-06T05:43:20;17.80;99.90
3578;DHT22;1803;48.494;9.696;2022-09-06T05:45:46;18.10;99.90
3578;DHT22;1803;48.494;9.696;2022-09-06T05:48:11;18.30;99.90
3578;DHT22;1803;48.494;9.696;2022-09-06T05:50:37;18.40;99.90
3578;DHT22;1803;48.494;9.696;2022-09-06T05:53:03;18.30;99.90
3578;DHT22;1803;48.494;9.696;2022-09-06T05:55:28;18.20;99.90
3578;DHT22;1803;48.494;9.696;2022-09-06T05:57:54;18.30;99.90
3578;DHT22;1803;48.494;9.696;2022-09-06T06:00:19;18.30;99.90
3578;DHT22;1803;48.494;9.696;2022-09-06T06:02:48;18.40;99.90
3578;DHT22;1803;48.494;9.696;2022-09-06T06:05:14;18.40;99.90
3578;DHT22;1803;48.494;9.696;2022-09-06T06:07:40;18.40;99.90
3578;DHT22;1803;48.494;9.696;2022-09-06T06:10:05;18.40;99.90
3578;DHT22;1803;48.494;9.696;2022-09-06T06:12:31;18.40;99.90
3578;DHT22;1803;48.494;9.696;2022-09-06T06:14:57;18.70;99.90
3578;DHT22;1803;48.494;9.696;2022-09-06T06:17:22;18.80;99.90
3578;DHT22;1803;48.494;9.696;2022-09-06T06:19:48;19.00;99.90
3578;DHT22;1803;48.494;9.696;2022-09-06T06:22:13;19.10;99.90
3578;DHT22;1803;48.494;9.696;2022-09-06T06:24:39;19.00;99.90
3578;DHT22;1803;48.494;9.696;2022-09-06T06:27:04;19.00;99.90
3578;DHT22;1803;48.494;9.696;2022-09-06T06:29:30;18.90;99.90
3578;DHT22;1803;48.494;9.696;2022-09-06T06:31:56;18.90;99.90
3578;DHT22;1803;48.494;9.696;2022-09-06T06:34:21;18.90;99.90
3578;DHT22;1803;48.494;9.696;2022-09-06T06:36:47;18.80;99.90
3578;DHT22;1803;48.494;9.696;2022-09-06T06:39:12;18.80;99.90
3578;DHT22;1803;48.494;9.696;2022-09-06T06:41:38;18.90;99.90
3578;DHT22;1803;48.494;9.696;2022-09-06T06:44:04;19.00;99.90
3578;DHT22;1803;48.494;9.696;2022-09-06T06:46:32;19.00;99.90
3578;DHT22;1803;48.494;9.696;2022-09-06T06:48:58;19.10;99.90
3578;DHT22;1803;48.494;9.696;2022-09-06T06:51:26;19.20;99.90
3578;DHT22;1803;48.494;9.696;2022-09-06T06:53:53;19.30;99.90
3578;DHT22;1803;48.494;9.696;2022-09-06T06:56:29;19.50;99.90
3578;DHT22;1803;48.494;9.696;2022-09-06T06:58:58;19.80;99.90
3578;DHT22;1803;48.494;9.696;2022-09-06T07:01:25;20.10;99.90
3578;DHT22;1803;48.494;9.696;2022-09-06T07:03:51;20.20;99.90
3578;DHT22;1803;48.494;9.696;2022-09-06T07:06:17;20.30;99.90
3578;DHT22;1803;48.494;9.696;2022-09-06T07:08:44;20.40;99.90
3578;DHT22;1803;48.494;9.696;2022-09-06T07:11:12;20.50;99.90
3578;DHT22;1803;48.494;9.696;2022-09-06T07:13:38;20.40;99.90
3578;DHT22;1803;48.494;9.696;2022-09-06T07:16:10;20.50;99.90
3578;DHT22;1803;48.494;9.696;2022-09-06T07:18:36;20.50;99.90
3578;DHT22;1803;48.494;9.696;2022-09-06T07:21:13;20.60;99.90
3578;DHT22;1803;48.494;9.696;2022-09-06T07:23:39;21.30;99.90
3578;DHT22;1803;48.494;9.696;2022-09-06T07:26:05;21.40;99.90
3578;DHT22;1803;48.494;9.696;2022-09-06T07:28:31;21.30;99.90
3578;DHT22;1803;48.494;9.696;2022-09-06T07:30:58;21.30;99.90
3578;DHT22;1803;48.494;9.696;2022-09-06T07:33:25;21.30;99.90
3578;DHT22;1803;48.494;9.696;2022-09-06T07:35:59;21.50;99.90
3578;DHT22;1803;48.494;9.696;2022-09-06T07:38:26;21.80;99.90
3578;DHT22;1803;48.494;9.696;2022-09-06T07:40:57;21.90;99.90
3578;DHT22;1803;48.494;9.696;2022-09-06T07:43:24;22.10;99.90
3578;DHT22;1803;48.494;9.696;2022-09-06T07:48:23;23.50;99.90
3578;DHT22;1803;48.494;9.696;2022-09-06T07:50:48;23.60;99.90
3578;DHT22;1803;48.494;9.696;2022-09-06T07:53:14;23.40;99.90
3578;DHT22;1803;48.494;9.696;2022-09-06T07:55:40;23.50;99.90
3578;DHT22;1803;48.494;9.696;2022-09-06T07:58:06;23.70;99.90
3578;DHT22;1803;48.494;9.696;2022-09-06T08:00:31;24.00;99.90
3578;DHT22;1803;48.494;9.696;2022-09-06T08:02:57;24.20;99.90
3578;DHT22;1803;48.494;9.696;2022-09-06T08:05:22;24.40;99.90
3578;DHT22;1803;48.494;9.696;2022-09-06T08:07:48;24.60;99.90
3578;DHT22;1803;48.494;9.696;2022-09-06T08:10:14;25.00;99.90
3578;DHT22;1803;48.494;9.696;2022-09-06T08:12:39;25.30;99.90
3578;DHT22;1803;48.494;9.696;2022-09-06T08:15:05;25.70;99.90
3578;DHT22;1803;48.494;9.696;2022-09-06T08:17:31;26.00;99.90
3578;DHT22;1803;48.494;9.696;2022-09-06T08:20:01;25.80;99.90
3578;DHT22;1803;48.494;9.696;2022-09-06T08:22:26;25.80;99.90
3578;DHT22;1803;48.494;9.696;2022-09-06T08:24:56;25.90;99.90
3578;DHT22;1803;48.494;9.696;2022-09-06T08:27:21;26.20;99.90
3578;DHT22;1803;48.494;9.696;2022-09-06T08:29:47;26.40;99.90
3578;DHT22;1803;48.494;9.696;2022-09-06T08:32:12;26.70;99.90
3578;DHT22;1803;48.494;9.696;2022-09-06T08:34:38;26.70;99.90
3578;DHT22;1803;48.494;9.696;2022-09-06T08:37:04;27.10;99.90
3578;DHT22;1803;48.494;9.696;2022-09-06T08:39:29;27.20;99.90
3578;DHT22;1803;48.494;9.696;2022-09-06T08:42:04;27.40;99.90
3578;DHT22;1803;48.494;9.696;2022-09-06T08:44:33;27.40;99.90
3578;DHT22;1803;48.494;9.696;2022-09-06T08:49:31;27.00;99.90
3578;DHT22;1803;48.494;9.696;2022-09-06T09:00:02;28.00;99.90
3578;DHT22;1803;48.494;9.696;2022-09-06T09:02:43;28.20;99.90
3578;DHT22;1803;48.494;9.696;2022-09-06T09:05:36;28.30;99.90
3578;DHT22;1803;48.494;9.696;2022-09-06T09:08:03;28.10;99.90
3578;DHT22;1803;48.494;9.696;2022-09-06T09:10:39;27.80;99.90
3578;DHT22;1803;48.494;9.696;2022-09-06T09:13:06;27.70;99.90
3578;DHT22;1803;48.494;9.696;2022-09-06T09:15:34;27.70;99.90
3578;DHT22;1803;48.494;9.696;2022-09-06T09:18:00;27.90;99.90
3578;DHT22;1803;48.494;9.696;2022-09-06T09:20:25;28.10;99.90
3578;DHT22;1803;48.494;9.696;2022-09-06T09:22:51;28.10;99.90
3578;DHT22;1803;48.494;9.696;2022-09-06T09:25:23;28.20;99.90
3578;DHT22;1803;48.494;9.696;2022-09-06T09:27:51;28.10;99.90
3578;DHT22;1803;48.494;9.696;2022-09-06T09:30:25;28.00;99.90
3578;DHT22;1803;48.494;9.696;2022-09-06T09:32:51;28.00;99.90
3578;DHT22;1803;48.494;9.696;2022-09-06T09:35:19;27.80;99.90
3578;DHT22;1803;48.494;9.696;2022-09-06T09:37:45;27.60;99.90
3578;DHT22;1803;48.494;9.696;2022-09-06T09:42:51;27.20;99.90
3578;DHT22;1803;48.494;9.696;2022-09-06T09:47:44;27.10;99.90
3578;DHT22;1803;48.494;9.696;2022-09-06T09:50:28;26.90;99.90
3578;DHT22;1803;48.494;9.696;2022-09-06T09:52:55;26.90;99.90
3578;DHT22;1803;48.494;9.696;2022-09-06T09:55:31;26.90;99.90
3578;DHT22;1803;48.494;9.696;2022-09-06T09:57:56;26.90;99.90
3578;DHT22;1803;48.494;9.696;2022-09-06T10:00:39;26.80;99.90
3578;DHT22;1803;48.494;9.696;2022-09-06T10:03:12;27.20;99.90
3578;DHT22;1803;48.494;9.696;2022-09-06T10:05:39;27.40;99.90
3578;DHT22;1803;48.494;9.696;2022-09-06T10:08:10;27.70;99.90
3578;DHT22;1803;48.494;9.696;2022-09-06T10:10:42;28.10;99.90
3578;DHT22;1803;48.494;9.696;2022-09-06T10:13:23;28.30;99.90
3578;DHT22;1803;48.494;9.696;2022-09-06T10:15:52;28.40;99.90
3578;DHT22;1803;48.494;9.696;2022-09-06T10:18:33;28.20;99.90
3578;DHT22;1803;48.494;9.696;2022-09-06T10:21:15;28.30;99.90
3578;DHT22;1803;48.494;9.696;2022-09-06T10:27:00;27.50;99.90
3578;DHT22;1803;48.494;9.696;2022-09-06T10:29:40;27.30;99.90
3578;DHT22;1803;48.494;9.696;2022-09-06T10:40:08;26.90;99.90
3578;DHT22;1803;48.494;9.696;2022-09-06T10:42:50;26.90;99.90
3578;DHT22;1803;48.494;9.696;2022-09-06T10:47:57;26.90;99.90
3578;DHT22;1803;48.494;9.696;2022-09-06T10:50:31;26.90;99.90
3578;DHT22;1803;48.494;9.696;2022-09-06T10:55:56;27.00;99.90
3578;DHT22;1803;48.494;9.696;2022-09-06T10:58:27;27.00;99.90
3578;DHT22;1803;48.494;9.696;2022-09-06T11:00:55;27.10;99.90
3578;DHT22;1803;48.494;9.696;2022-09-06T11:03:29;27.30;99.90
3578;DHT22;1803;48.494;9.696;2022-09-06T11:06:01;27.50;99.90
3578;DHT22;1803;48.494;9.696;2022-09-06T11:11:43;27.80;99.90
3578;DHT22;1803;48.494;9.696;2022-09-06T11:14:13;27.80;99.90
3578;DHT22;1803;48.494;9.696;2022-09-06T11:26:14;26.80;99.90
3578;DHT22;1803;48.494;9.696;2022-09-06T11:28:43;26.80;99.90
3578;DHT22;1803;48.494;9.696;2022-09-06T11:31:28;26.70;99.90
3578;DHT22;1803;48.494;9.696;2022-09-06T11:34:07;26.60;99.90
3578;DHT22;1803;48.494;9.696;2022-09-06T11:36:55;26.60;99.90
3578;DHT22;1803;48.494;9.696;2022-09-06T11:39:37;26.60;99.90
3578;DHT22;1803;48.494;9.696;2022-09-06T11:42:07;26.60;99.90
3578;DHT22;1803;48.494;9.696;2022-09-06T11:47:44;26.60;99.90
3578;DHT22;1803;48.494;9.696;2022-09-06T11:53:14;26.70;99.90
3578;DHT22;1803;48.494;9.696;2022-09-06T11:56:09;26.90;99.90
3578;DHT22;1803;48.494;9.696;2022-09-06T11:58:30;26.90;99.90
3578;DHT22;1803;48.494;9.696;2022-09-06T12:06:23;27.10;99.90
3578;DHT22;1803;48.494;9.696;2022-09-06T12:08:53;27.30;99.90
3578;DHT22;1803;48.494;9.696;2022-09-06T12:11:32;27.40;99.90
3578;DHT22;1803;48.494;9.696;2022-09-06T12:30:38;27.70;99.90
3578;DHT22;1803;48.494;9.696;2022-09-06T12:33:33;27.60;99.90
3578;DHT22;1803;48.494;9.696;2022-09-06T12:36:21;27.60;99.90
3578;DHT22;1803;48.494;9.696;2022-09-06T12:39:08;27.70;99.90
3578;DHT22;1803;48.494;9.696;2022-09-06T12:41:39;27.70;99.90
3578;DHT22;1803;48.494;9.696;2022-09-06T12:44:06;27.60;99.90
3578;DHT22;1803;48.494;9.696;2022-09-06T12:46:33;27.80;99.90
3578;DHT22;1803;48.494;9.696;2022-09-06T12:49:01;27.70;99.90
3578;DHT22;1803;48.494;9.696;2022-09-06T12:51:27;27.60;99.90
3578;DHT22;1803;48.494;9.696;2022-09-06T12:53:56;27.50;99.90
3578;DHT22;1803;48.494;9.696;2022-09-06T12:56:23;27.60;99.90
3578;DHT22;1803;48.494;9.696;2022-09-06T12:58:49;27.80;99.90
3578;DHT22;1803;48.494;9.696;2022-09-06T13:01:25;27.90;99.90
3578;DHT22;1803;48.494;9.696;2022-09-06T13:06:47;28.00;99.90
3578;DHT22;1803;48.494;9.696;2022-09-06T13:09:16;27.90;99.90
3578;DHT22;1803;48.494;9.696;2022-09-06T13:11:46;27.80;99.90
3578;DHT22;1803;48.494;9.696;2022-09-06T13:14:33;27.70;99.90
3578;DHT22;1803;48.494;9.696;2022-09-06T13:16:59;27.60;99.90
3578;DHT22;1803;48.494;9.696;2022-09-06T13:21:56;27.50;99.90
3578;DHT22;1803;48.494;9.696;2022-09-06T13:24:43;27.50;99.90
3578;DHT22;1803;48.494;9.696;2022-09-06T13:27:32;27.70;99.90
3578;DHT22;1803;48.494;9.696;2022-09-06T13:30:04;27.80;99.90
3578;DHT22;1803;48.494;9.696;2022-09-06T13:32:32;27.80;99.90
3578;DHT22;1803;48.494;9.696;2022-09-06T13:34:58;28.00;99.90
3578;DHT22;1803;48.494;9.696;2022-09-06T13:37:30;28.10;99.90
3578;DHT22;1803;48.494;9.696;2022-09-06T13:39:57;28.10;99.90
3578;DHT22;1803;48.494;9.696;2022-09-06T13:42:30;28.10;99.90
3578;DHT22;1803;48.494;9.696;2022-09-06T13:44:58;28.00;99.90
3578;DHT22;1803;48.494;9.696;2022-09-06T13:47:39;28.10;99.90
3578;DHT22;1803;48.494;9.696;2022-09-06T13:50:05;28.10;99.90
3578;DHT22;1803;48.494;9.696;2022-09-06T13:52:30;28.10;99.90
3578;DHT22;1803;48.494;9.696;2022-09-06T13:54:56;27.90;99.90
3578;DHT22;1803;48.494;9.696;2022-09-06T13:57:21;27.80;99.90
3578;DHT22;1803;48.494;9.696;2022-09-06T13:59:47;27.70;99.90
3578;DHT22;1803;48.494;9.696;2022-09-06T14:02:13;27.60;99.90
3578;DHT22;1803;48.494;9.696;2022-09-06T14:04:43;27.50;99.90
3578;DHT22;1803;48.494;9.696;2022-09-06T14:07:09;27.50;99.90
3578;DHT22;1803;48.494;9.696;2022-09-06T14:09:35;27.50;99.90
3578;DHT22;1803;48.494;9.696;2022-09-06T14:12:02;27.60;99.90
3578;DHT22;1803;48.494;9.696;2022-09-06T14:14:27;27.60;99.90
3578;DHT22;1803;48.494;9.696;2022-09-06T14:16:53;27.60;99.90
3578;DHT22;1803;48.494;9.696;2022-09-06T14:19:19;27.60;99.90
3578;DHT22;1803;48.494;9.696;2022-09-06T14:21:45;27.60;99.90
3578;DHT22;1803;48.494;9.696;2022-09-06T14:24:10;27.60;99.90
3578;DHT22;1803;48.494;9.696;2022-09-06T14:26:36;27.50;99.90
3578;DHT22;1803;48.494;9.696;2022-09-06T14:29:02;27.50;99.90
3578;DHT22;1803;48.494;9.696;2022-09-06T14:31:28;27.60;99.90
3578;DHT22;1803;48.494;9.696;2022-09-06T14:33:55;27.40;99.90
3578;DHT22;1803;48.494;9.696;2022-09-06T14:36:23;27.40;99.90
3578;DHT22;1803;48.494;9.696;2022-09-06T14:38:49;27.30;99.90
3578;DHT22;1803;48.494;9.696;2022-09-06T14:41:16;27.20;99.90
3578;DHT22;1803;48.494;9.696;2022-09-06T14:43:43;27.00;99.90
3578;DHT22;1803;48.494;9.696;2022-09-06T14:46:13;27.00;99.90
3578;DHT22;1803;48.494;9.696;2022-09-06T14:48:40;26.90;99.90
3578;DHT22;1803;48.494;9.696;2022-09-06T14:51:14;26.80;99.90
3578;DHT22;1803;48.494;9.696;2022-09-06T14:53:43;26.60;99.90
3578;DHT22;1803;48.494;9.696;2022-09-06T14:56:10;26.60;99.90
3578;DHT22;1803;48.494;9.696;2022-09-06T14:58:37;26.50;99.90
3578;DHT22;1803;48.494;9.696;2022-09-06T15:01:23;26.50;99.90
3578;DHT22;1803;48.494;9.696;2022-09-06T15:04:00;26.30;99.90
3578;DHT22;1803;48.494;9.696;2022-09-06T15:06:31;26.00;99.90
3578;DHT22;1803;48.494;9.696;2022-09-06T15:08:57;25.90;99.90
3578;DHT22;1803;48.494;9.696;2022-09-06T15:13:54;25.60;99.90
3578;DHT22;1803;48.494;9.696;2022-09-06T15:16:19;25.40;99.90
3578;DHT22;1803;48.494;9.696;2022-09-06T15:18:45;25.30;99.90
3578;DHT22;1803;48.494;9.696;2022-09-06T15:21:12;25.20;99.90
3578;DHT22;1803;48.494;9.696;2022-09-06T15:23:39;25.00;99.90
3578;DHT22;1803;48.494;9.696;2022-09-06T15:26:08;24.90;99.90
3578;DHT22;1803;48.494;9.696;2022-09-06T15:28:38;24.70;99.90
3578;DHT22;1803;48.494;9.696;2022-09-06T15:31:06;24.60;99.90
3578;DHT22;1803;48.494;9.696;2022-09-06T15:33:33;24.40;99.90
3578;DHT22;1803;48.494;9.696;2022-09-06T15:36:00;24.30;99.90
3578;DHT22;1803;48.494;9.696;2022-09-06T15:38:40;24.10;99.90
3578;DHT22;1803;48.494;9.696;2022-09-06T15:41:11;24.10;99.90
3578;DHT22;1803;48.494;9.696;2022-09-06T15:43:42;24.00;99.90
3578;DHT22;1803;48.494;9.696;2022-09-06T15:46:12;23.90;99.90
3578;DHT22;1803;48.494;9.696;2022-09-06T15:48:43;23.80;99.90
3578;DHT22;1803;48.494;9.696;2022-09-06T15:51:12;23.70;99.90
3578;DHT22;1803;48.494;9.696;2022-09-06T15:53:38;23.60;99.90
3578;DHT22;1803;48.494;9.696;2022-09-06T15:56:05;23.50;99.90
3578;DHT22;1803;48.494;9.696;2022-09-06T15:58:32;23.40;99.90
3578;DHT22;1803;48.494;9.696;2022-09-06T16:01:12;23.30;99.90
3578;DHT22;1803;48.494;9.696;2022-09-06T16:03:41;23.30;99.90
3578;DHT22;1803;48.494;9.696;2022-09-06T16:06:10;23.30;99.90
3578;DHT22;1803;48.494;9.696;2022-09-06T16:08:37;23.40;99.90
3578;DHT22;1803;48.494;9.696;2022-09-06T16:11:10;23.40;99.90
3578;DHT22;1803;48.494;9.696;2022-09-06T16:13:37;23.50;99.90
3578;DHT22;1803;48.494;9.696;2022-09-06T16:16:06;23.50;99.90
3578;DHT22;1803;48.494;9.696;2022-09-06T16:18:33;23.60;99.90
3578;DHT22;1803;48.494;9.696;2022-09-06T16:21:23;23.50;99.90
3578;DHT22;1803;48.494;9.696;2022-09-06T16:24:09;23.50;99.90
3578;DHT22;1803;48.494;9.696;2022-09-06T16:26:37;23.50;99.90
3578;DHT22;1803;48.494;9.696;2022-09-06T16:29:05;23.60;99.90
3578;DHT22;1803;48.494;9.696;2022-09-06T16:31:31;23.70;99.90
3578;DHT22;1803;48.494;9.696;2022-09-06T16:33:58;23.70;99.90
3578;DHT22;1803;48.494;9.696;2022-09-06T16:36:25;23.80;99.90
3578;DHT22;1803;48.494;9.696;2022-09-06T16:38:51;23.70;99.90
3578;DHT22;1803;48.494;9.696;2022-09-06T16:41:21;23.60;99.90
3578;DHT22;1803;48.494;9.696;2022-09-06T16:43:49;23.40;99.90
3578;DHT22;1803;48.494;9.696;2022-09-06T16:46:17;23.30;99.90
3578;DHT22;1803;48.494;9.696;2022-09-06T16:48:48;23.20;99.90
3578;DHT22;1803;48.494;9.696;2022-09-06T16:51:16;23.10;99.90
3578;DHT22;1803;48.494;9.696;2022-09-06T16:53:44;23.00;99.90
3578;DHT22;1803;48.494;9.696;2022-09-06T16:56:11;22.90;99.90
3578;DHT22;1803;48.494;9.696;2022-09-06T16:58:37;22.80;99.90
3578;DHT22;1803;48.494;9.696;2022-09-06T17:01:07;22.80;99.90
3578;DHT22;1803;48.494;9.696;2022-09-06T17:03:37;22.80;99.90
3578;DHT22;1803;48.494;9.696;2022-09-06T17:06:03;22.70;99.90
3578;DHT22;1803;48.494;9.696;2022-09-06T17:08:30;22.60;99.90
3578;DHT22;1803;48.494;9.696;2022-09-06T17:11:00;22.60;99.90
3578;DHT22;1803;48.494;9.696;2022-09-06T17:13:25;22.50;99.90
3578;DHT22;1803;48.494;9.696;2022-09-06T17:15:52;22.50;99.90
3578;DHT22;1803;48.494;9.696;2022-09-06T17:18:37;22.40;99.90
3578;DHT22;1803;48.494;9.696;2022-09-06T17:21:02;22.30;99.90
3578;DHT22;1803;48.494;9.696;2022-09-06T17:23:32;22.20;99.90
3578;DHT22;1803;48.494;9.696;2022-09-06T17:25:58;22.00;99.90
3578;DHT22;1803;48.494;9.696;2022-09-06T17:28:23;21.90;99.90
3578;DHT22;1803;48.494;9.696;2022-09-06T17:30:49;21.80;99.90
3578;DHT22;1803;48.494;9.696;2022-09-06T17:33:16;21.70;99.90
3578;DHT22;1803;48.494;9.696;2022-09-06T17:35:43;21.60;99.90
3578;DHT22;1803;48.494;9.696;2022-09-06T17:38:09;21.50;99.90
3578;DHT22;1803;48.494;9.696;2022-09-06T17:40:34;21.40;99.90
3578;DHT22;1803;48.494;9.696;2022-09-06T17:43:00;21.30;99.90
3578;DHT22;1803;48.494;9.696;2022-09-06T17:45:27;21.20;99.90
3578;DHT22;1803;48.494;9.696;2022-09-06T17:47:53;21.10;99.90
3578;DHT22;1803;48.494;9.696;2022-09-06T17:50:18;21.10;99.90
3578;DHT22;1803;48.494;9.696;2022-09-06T17:52:44;21.00;99.90
3578;DHT22;1803;48.494;9.696;2022-09-06T17:55:10;20.90;99.90
3578;DHT22;1803;48.494;9.696;2022-09-06T17:57:36;20.80;99.90
3578;DHT22;1803;48.494;9.696;2022-09-06T18:00:02;20.80;99.90
3578;DHT22;1803;48.494;9.696;2022-09-06T18:02:28;20.70;99.90
3578;DHT22;1803;48.494;9.696;2022-09-06T18:04:53;20.70;99.90
3578;DHT22;1803;48.494;9.696;2022-09-06T18:07:19;20.70;99.90
3578;DHT22;1803;48.494;9.696;2022-09-06T18:09:44;20.70;99.90
3578;DHT22;1803;48.494;9.696;2022-09-06T18:12:10;20.70;99.90
3578;DHT22;1803;48.494;9.696;2022-09-06T18:14:36;20.60;99.90
3578;DHT22;1803;48.494;9.696;2022-09-06T18:17:02;20.50;99.90
3578;DHT22;1803;48.494;9.696;2022-09-06T18:19:27;20.40;99.90
3578;DHT22;1803;48.494;9.696;2022-09-06T18:21:53;20.30;99.90
3578;DHT22;1803;48.494;9.696;2022-09-06T18:24:21;20.20;99.90
3578;DHT22;1803;48.494;9.696;2022-09-06T18:26:46;20.10;99.90
3578;DHT22;1803;48.494;9.696;2022-09-06T18:29:13;20.00;99.90
3578;DHT22;1803;48.494;9.696;2022-09-06T18:31:41;20.00;99.90
3578;DHT22;1803;48.494;9.696;2022-09-06T18:34:07;19.90;99.90
3578;DHT22;1803;48.494;9.696;2022-09-06T18:36:33;19.80;99.90
3578;DHT22;1803;48.494;9.696;2022-09-06T18:39:00;19.70;99.90
3578;DHT22;1803;48.494;9.696;2022-09-06T18:41:28;19.70;99.90
3578;DHT22;1803;48.494;9.696;2022-09-06T18:44:12;19.60;99.90
3578;DHT22;1803;48.494;9.696;2022-09-06T18:46:38;19.50;99.90
3578;DHT22;1803;48.494;9.696;2022-09-06T18:49:04;19.50;99.90
3578;DHT22;1803;48.494;9.696;2022-09-06T18:51:30;19.40;99.90
3578;DHT22;1803;48.494;9.696;2022-09-06T18:53:57;19.40;99.90
3578;DHT22;1803;48.494;9.696;2022-09-06T18:56:24;19.30;99.90
3578;DHT22;1803;48.494;9.696;2022-09-06T18:58:58;19.20;99.90
3578;DHT22;1803;48.494;9.696;2022-09-06T19:01:25;19.20;99.90
3578;DHT22;1803;48.494;9.696;2022-09-06T19:03:54;19.10;99.90
3578;DHT22;1803;48.494;9.696;2022-09-06T19:06:20;19.10;99.90
3578;DHT22;1803;48.494;9.696;2022-09-06T19:08:46;19.10;99.90
3578;DHT22;1803;48.494;9.696;2022-09-06T19:11:14;19.00;99.90
3578;DHT22;1803;48.494;9.696;2022-09-06T19:13:42;18.90;99.90
3578;DHT22;1803;48.494;9.696;2022-09-06T19:16:09;18.90;99.90
3578;DHT22;1803;48.494;9.696;2022-09-06T19:18:35;18.90;99.90
3578;DHT22;1803;48.494;9.696;2022-09-06T19:21:02;18.80;99.90
3578;DHT22;1803;48.494;9.696;2022-09-06T19:23:30;18.80;99.90
3578;DHT22;1803;48.494;9.696;2022-09-06T19:26:01;18.70;99.90
3578;DHT22;1803;48.494;9.696;2022-09-06T19:28:27;18.70;99.90
3578;DHT22;1803;48.494;9.696;2022-09-06T19:30:54;18.60;99.90
3578;DHT22;1803;48.494;9.696;2022-09-06T19:33:20;18.60;99.90
3578;DHT22;1803;48.494;9.696;2022-09-06T19:35:46;18.50;99.90
3578;DHT22;1803;48.494;9.696;2022-09-06T19:38:12;18.50;99.90
3578;DHT22;1803;48.494;9.696;2022-09-06T19:40:37;18.50;99.90
3578;DHT22;1803;48.494;9.696;2022-09-06T19:43:03;18.40;99.90
3578;DHT22;1803;48.494;9.696;2022-09-06T19:45:28;18.40;99.90
3578;DHT22;1803;48.494;9.696;2022-09-06T19:47:54;18.30;99.90
3578;DHT22;1803;48.494;9.696;2022-09-06T19:50:20;18.30;99.90
3578;DHT22;1803;48.494;9.696;2022-09-06T19:52:45;18.30;99.90
3578;DHT22;1803;48.494;9.696;2022-09-06T19:55:12;18.20;99.90
3578;DHT22;1803;48.494;9.696;2022-09-06T19:57:37;18.20;99.90
3578;DHT22;1803;48.494;9.696;2022-09-06T20:00:07;18.20;99.90
3578;DHT22;1803;48.494;9.696;2022-09-06T20:02:32;18.20;99.90
3578;DHT22;1803;48.494;9.696;2022-09-06T20:04:58;18.20;99.90
3578;DHT22;1803;48.494;9.696;2022-09-06T20:07:23;18.10;99.90
3578;DHT22;1803;48.494;9.696;2022-09-06T20:09:51;18.10;99.90
3578;DHT22;1803;48.494;9.696;2022-09-06T20:12:16;18.10;99.90
3578;DHT22;1803;48.494;9.696;2022-09-06T20:14:42;18.00;99.90
3578;DHT22;1803;48.494;9.696;2022-09-06T20:17:07;18.00;99.90
3578;DHT22;1803;48.494;9.696;2022-09-06T20:19:34;18.00;99.90
3578;DHT22;1803;48.494;9.696;2022-09-06T20:21:59;18.00;99.90
3578;DHT22;1803;48.494;9.696;2022-09-06T20:24:25;17.90;99.90
3578;DHT22;1803;48.494;9.696;2022-09-06T20:26:52;17.90;99.90
3578;DHT22;1803;48.494;9.696;2022-09-06T20:29:18;17.90;99.90
3578;DHT22;1803;48.494;9.696;2022-09-06T20:31:43;17.80;99.90
3578;DHT22;1803;48.494;9.696;2022-09-06T20:34:09;17.80;99.90